Time;durP1;ratioP1;P1;durP2;ratioP2;P2;SDS_P1;SDS_P2;PMS_P1;PMS_P2;Temp;Humidity;BMP_temperature;BMP_pressure;BME280_temperature;BME280_humidity;BME280_pressure;Samples;Min_cycle;Max_cycle;Signal;HPM_P1;HPM_P2
2021/03/26 16:07:39;;;;;;;15.13;7.60;;;9.10;70.40;;;;;;5058277;28;20780;-80
2021/03/26 16:10:32;;;;;;;28.05;8.68;;;9.10;71.40;;;;;;5051208;28;20152;-79
2021/03/26 16:13:18;;;;;;;14.77;7.95;;;9.00;71.90;;;;;;5049015;28;20021;-79
2021/03/26 16:16:10;;;;;;;19.92;9.85;;;9.00;72.90;;;;;;5049814;28;20060;-79
2021/03/26 16:18:45;;;;;;;22.85;10.13;;;8.90;73.00;;;;;;5047728;28;20029;-80
2021/03/26 16:21:48;;;;;;;18.00;9.63;;;9.00;73.20;;;;;;5049694;28;20025;-79
2021/03/26 16:24:42;;;;;;;21.27;9.77;;;8.90;73.40;;;;;;5048304;28;20022;-79
2021/03/26 16:27:45;;;;;;;19.55;10.45;;;8.90;73.60;;;;;;5048707;28;20078;-80
2021/03/26 16:30:41;;;;;;;25.70;11.98;;;8.90;73.90;;;;;;5045760;28;20748;-79
2021/03/26 16:33:42;;;;;;;19.20;10.25;;;8.80;73.90;;;;;;5049217;28;20029;-80
2021/03/26 16:36:08;;;;;;;28.88;10.65;;;8.80;73.80;;;;;;5062867;28;20653;-80
2021/03/26 16:38:47;;;;;;;22.25;11.07;;;8.80;73.90;;;;;;5062386;28;20136;-78
2021/03/26 16:41:50;;;;;;;22.17;10.43;;;8.80;73.60;;;;;;5047881;28;20044;-85
2021/03/26 16:44:38;;;;;;;38.95;14.77;;;8.80;73.80;;;;;;5062680;28;20036;-77
2021/03/26 16:47:22;;;;;;;43.95;16.90;;;8.80;73.80;;;;;;5062887;28;20029;-80
2021/03/26 16:50:05;;;;;;;21.60;12.18;;;8.70;74.00;;;;;;5064309;28;20021;-77
2021/03/26 16:52:49;;;;;;;25.15;14.10;;;8.70;74.20;;;;;;5047035;28;20379;-78
2021/03/26 16:55:24;;;;;;;32.47;15.45;;;8.60;74.10;;;;;;5063097;28;20021;-82
2021/03/26 16:58:19;;;;;;;25.33;14.88;;;8.60;74.50;;;;;;5063559;28;20427;-78
2021/03/26 17:01:29;;;;;;;25.75;15.57;;;8.60;74.50;;;;;;5046502;28;20100;-78
2021/03/26 17:04:34;;;;;;;27.52;15.23;;;8.50;74.60;;;;;;5063116;28;20039;-78
2021/03/26 17:07:24;;;;;;;23.45;14.90;;;8.40;76.50;;;;;;5062910;28;20053;-79
2021/03/26 17:09:58;;;;;;;28.42;17.88;;;8.20;75.70;;;;;;5047726;28;20021;-79
2021/03/26 17:12:43;;;;;;;26.52;16.83;;;8.10;76.40;;;;;;5063137;28;20029;-79
2021/03/26 17:15:46;;;;;;;28.38;16.98;;;7.90;76.80;;;;;;5063226;28;20053;-78
2021/03/26 17:18:24;;;;;;;31.25;17.48;;;7.70;77.20;;;;;;5052602;28;20037;-79
2021/03/26 17:21:02;;;;;;;27.98;16.25;;;7.60;77.60;;;;;;5051603;28;20029;-78
2021/03/26 17:23:52;;;;;;;27.40;16.77;;;7.40;77.90;;;;;;5051551;28;20026;-78
2021/03/26 17:26:44;;;;;;;24.75;15.60;;;7.30;78.80;;;;;;5036146;28;20029;-79
2021/03/26 17:29:21;;;;;;;26.05;15.52;;;7.10;79.70;;;;;;5051366;28;20033;-78
2021/03/26 17:32:15;;;;;;;25.45;16.60;;;7.00;79.20;;;;;;5051301;28;20483;-79
2021/03/26 17:35:13;;;;;;;31.42;18.85;;;6.90;79.50;;;;;;5051240;28;20076;-78
2021/03/26 17:38:00;;;;;;;30.60;18.67;;;6.80;79.80;;;;;;5051266;28;20017;-75
2021/03/26 17:40:44;;;;;;;27.90;16.92;;;6.70;79.90;;;;;;5051148;28;20021;-79
2021/03/26 17:43:43;;;;;;;26.35;16.13;;;6.60;79.90;;;;;;5051052;28;20022;-78
2021/03/26 17:46:41;;;;;;;27.08;16.55;;;6.60;80.40;;;;;;5051353;28;20029;-80
2021/03/26 17:49:28;;;;;;;39.80;24.80;;;6.50;80.60;;;;;;5034402;28;20467;-79
2021/03/26 17:52:21;;;;;;;38.33;18.98;;;6.40;80.70;;;;;;5050893;28;20099;-78
2021/03/26 17:54:53;;;;;;;34.00;19.48;;;6.40;81.00;;;;;;5050800;28;20025;-75
2021/03/26 17:57:43;;;;;;;32.72;20.58;;;6.30;81.30;;;;;;5050812;28;20022;-75
2021/03/26 18:00:17;;;;;;;34.45;21.10;;;6.20;81.50;;;;;;5050661;28;20034;-75
2021/03/26 18:03:10;;;;;;;42.45;26.00;;;6.20;81.80;;;;;;5050755;28;20032;-75
2021/03/26 18:05:45;;;;;;;46.97;29.05;;;6.00;82.60;;;;;;5050549;28;20184;-76
2021/03/26 18:08:11;;;;;;;49.25;28.67;;;5.90;82.70;;;;;;5050855;28;20112;-75
2021/03/26 18:10:52;;;;;;;44.50;27.77;;;5.80;82.70;;;;;;5050465;28;20049;-76
2021/03/26 18:13:49;;;;;;;44.95;27.00;;;5.80;83.30;;;;;;5035161;28;20464;-75
2021/03/26 18:16:34;;;;;;;43.15;25.83;;;5.70;84.10;;;;;;5035210;28;20108;-76
2021/03/26 18:19:11;;;;;;;40.42;23.88;;;5.60;83.70;;;;;;5048485;28;20477;-76
2021/03/26 18:22:11;;;;;;;44.13;25.15;;;5.50;83.80;;;;;;5031978;28;20026;-75
2021/03/26 18:24:51;;;;;;;43.13;24.58;;;5.40;84.60;;;;;;5031685;28;20029;-73
2021/03/26 18:27:38;;;;;;;41.45;24.70;;;5.40;84.60;;;;;;5048378;28;20386;-74
2021/03/26 18:30:41;;;;;;;43.10;23.00;;;5.30;84.60;;;;;;5028377;28;20140;-73
2021/03/26 18:33:40;;;;;;;44.10;24.77;;;5.20;84.70;;;;;;5012886;28;20422;-73
2021/03/26 18:36:21;;;;;;;45.20;26.02;;;5.20;85.70;;;;;;5013027;28;20029;-73
2021/03/26 18:39:07;;;;;;;;;;;5.10;85.60;;;;;;5021195;28;20036;-73
2021/03/26 18:41:46;;;;;;;47.00;23.65;;;5.00;87.10;;;;;;5032447;28;19905;-74
2021/03/26 18:44:39;;;;;;;46.17;25.83;;;5.00;85.60;;;;;;5032345;28;20057;-74
2021/03/26 18:47:42;;;;;;;41.65;24.98;;;4.90;85.90;;;;;;5033878;28;20053;-74
2021/03/26 18:50:26;;;;;;;52.92;27.70;;;4.90;86.00;;;;;;5012919;28;20030;-74
2021/03/26 18:53:16;;;;;;;57.08;27.08;;;4.80;85.60;;;;;;5012809;28;20479;-74
2021/03/26 18:56:05;;;;;;;46.97;26.33;;;4.80;86.20;;;;;;5012553;28;20033;-73
2021/03/26 18:58:40;;;;;;;56.40;27.67;;;4.70;86.10;;;;;;5012879;28;20080;-74
2021/03/26 19:01:34;;;;;;;79.50;35.20;;;4.70;86.20;;;;;;5012443;28;20072;-74
2021/03/26 19:04:18;;;;;;;60.25;32.75;;;4.60;87.80;;;;;;5029636;28;20100;-76
2021/03/26 19:06:52;;;;;;;75.65;36.78;;;4.60;86.70;;;;;;5045835;28;20048;-75
2021/03/26 19:09:32;;;;;;;87.68;40.83;;;4.60;87.10;;;;;;5031837;28;20378;-75
2021/03/26 19:12:17;;;;;;;89.75;43.35;;;4.50;86.70;;;;;;5033054;28;20072;-75
2021/03/26 19:15:04;;;;;;;91.63;44.78;;;4.50;87.60;;;;;;5032189;28;20022;-76
2021/03/26 19:17:35;;;;;;;104.80;47.70;;;4.40;87.60;;;;;;5028690;28;20505;-76
2021/03/26 19:20:05;;;;;;;101.97;50.95;;;4.40;87.30;;;;;;5026930;28;20041;-76
2021/03/26 19:22:45;;;;;;;99.45;50.88;;;4.30;87.50;;;;;;5032018;28;20026;-76
2021/03/26 19:25:32;;;;;;;117.28;58.10;;;4.30;87.40;;;;;;5032424;28;20044;-76
2021/03/26 19:28:26;;;;;;;117.88;58.40;;;4.20;88.20;;;;;;5032578;28;20049;-76
2021/03/26 19:31:00;;;;;;;121.03;58.83;;;4.20;88.20;;;;;;5032626;28;20025;-76
2021/03/26 19:33:51;;;;;;;131.50;63.78;;;4.20;89.00;;;;;;5033870;28;20030;-76
2021/03/26 19:36:29;;;;;;;116.35;59.75;;;4.10;88.40;;;;;;5031990;28;20034;-75
2021/03/26 19:39:19;;;;;;;128.13;63.75;;;4.00;89.10;;;;;;5032550;28;20395;-76
2021/03/26 19:42:28;;;;;;;123.00;60.42;;;4.00;89.30;;;;;;5033479;28;20034;-76
2021/03/26 19:45:38;;;;;;;115.55;59.85;;;4.00;89.30;;;;;;5030954;28;20050;-76
2021/03/26 19:48:16;;;;;;;115.70;58.67;;;4.00;89.10;;;;;;5033367;28;20018;-76
2021/03/26 19:50:50;;;;;;;119.05;59.00;;;4.00;89.40;;;;;;5012428;28;20080;-76
2021/03/26 19:53:27;;;;;;;111.35;56.40;;;4.10;89.60;;;;;;5030674;28;20044;-76
2021/03/26 19:56:07;;;;;;;120.75;61.47;;;4.10;89.20;;;;;;5032756;28;20038;-76
2021/03/26 19:58:47;;;;;;;116.40;58.13;;;4.10;89.80;;;;;;5032353;28;20025;-77
2021/03/26 20:01:23;;;;;;;115.97;55.72;;;4.10;89.90;;;;;;5032278;28;20082;-76
2021/03/26 20:04:13;;;;;;;112.93;54.60;;;4.20;90.10;;;;;;5033553;28;20225;-76
2021/03/26 20:07:11;;;;;;;107.32;49.78;;;4.20;90.20;;;;;;5031931;28;20057;-76
2021/03/26 20:09:57;;;;;;;121.15;53.78;;;4.20;90.40;;;;;;5031876;28;20095;-76
2021/03/26 20:12:23;;;;;;;107.55;50.08;;;4.30;90.20;;;;;;5033369;28;20074;-76
2021/03/26 20:15:13;;;;;;;107.93;50.97;;;4.30;90.00;;;;;;5032263;28;20418;-76
2021/03/26 20:17:40;;;;;;;94.60;47.47;;;4.40;90.30;;;;;;5033303;28;20025;-76
2021/03/26 20:20:19;;;;;;;86.50;42.55;;;4.40;90.30;;;;;;5031709;28;20037;-76
2021/03/26 20:22:52;;;;;;;90.00;42.67;;;4.50;90.10;;;;;;5031823;28;20029;-76
2021/03/26 20:25:32;;;;;;;94.43;44.63;;;4.50;90.10;;;;;;5031646;28;20417;-76
2021/03/26 20:28:17;;;;;;;83.75;40.65;;;4.60;90.10;;;;;;5032194;28;20028;-76
2021/03/26 20:30:58;;;;;;;77.65;40.35;;;4.60;90.20;;;;;;5031475;28;20021;-76
2021/03/26 20:33:44;;;;;;;78.10;39.08;;;4.70;90.10;;;;;;5032725;28;20067;-76
2021/03/26 20:36:27;;;;;;;74.50;37.50;;;4.70;90.10;;;;;;5030975;28;20038;-76
2021/03/26 20:39:11;;;;;;;64.13;33.65;;;4.70;90.10;;;;;;5031700;28;20025;-76
2021/03/26 20:42:07;;;;;;;70.22;35.40;;;4.80;90.00;;;;;;5032869;28;20026;-76
2021/03/26 20:44:42;;;;;;;56.47;29.85;;;4.80;90.00;;;;;;5031348;28;20033;-76
2021/03/26 20:47:16;;;;;;;45.88;23.83;;;4.90;89.60;;;;;;5031474;28;20459;-76
2021/03/26 20:50:00;;;;;;;46.65;25.08;;;5.00;89.30;;;;;;5030728;28;20072;-76
2021/03/26 20:52:37;;;;;;;52.53;28.38;;;5.10;89.60;;;;;;5034038;28;20028;-76
2021/03/26 20:55:36;;;;;;;54.78;27.67;;;5.10;89.80;;;;;;5035238;28;20075;-76
2021/03/26 20:58:16;;;;;;;50.10;29.10;;;5.20;89.80;;;;;;5035161;28;20379;-75
2021/03/26 21:00:48;;;;;;;38.97;21.60;;;5.20;89.90;;;;;;5036445;28;20100;-76
2021/03/26 21:03:25;;;;;;;40.60;22.05;;;5.30;89.60;;;;;;5035103;28;20263;-76
2021/03/26 21:06:16;;;;;;;37.60;22.23;;;5.30;89.70;;;;;;5034767;28;20060;-76
2021/03/26 21:09:04;;;;;;;41.40;22.00;;;5.40;89.10;;;;;;5036232;28;20091;-76
2021/03/26 21:11:53;;;;;;;39.53;22.60;;;5.50;89.30;;;;;;5034092;28;20025;-76
2021/03/26 21:14:37;;;;;;;36.45;20.35;;;5.50;88.80;;;;;;5051258;28;20029;-76
2021/03/26 21:17:26;;;;;;;33.13;18.52;;;5.60;88.50;;;;;;5051645;28;20025;-76
2021/03/26 21:20:03;;;;;;;38.55;20.05;;;5.70;88.00;;;;;;5037170;28;20523;-76
2021/03/26 21:22:42;;;;;;;29.20;16.52;;;5.80;87.80;;;;;;5051779;28;20037;-76
2021/03/26 21:25:17;;;;;;;30.73;18.27;;;5.90;87.60;;;;;;5051669;28;20022;-76
2021/03/26 21:27:46;;;;;;;30.75;18.23;;;6.00;87.30;;;;;;5036641;28;20022;-76
2021/03/26 21:30:36;;;;;;;36.55;20.30;;;6.10;87.00;;;;;;5048259;28;20517;-76
2021/03/26 21:33:35;;;;;;;37.28;22.15;;;6.20;86.70;;;;;;5035069;28;20044;-76
2021/03/26 21:36:06;;;;;;;33.25;20.77;;;6.40;85.90;;;;;;5034674;28;20037;-76
2021/03/26 21:38:43;;;;;;;;;;;6.50;85.50;;;;;;5035369;28;20022;-76
2021/03/26 21:41:14;;;;;;;30.77;20.13;;;6.60;84.70;;;;;;5036335;28;20413;-76
2021/03/26 21:44:07;;;;;;;36.92;21.60;;;6.60;85.00;;;;;;5035502;28;20049;-76
2021/03/26 21:46:51;;;;;;;36.20;20.75;;;6.70;84.60;;;;;;5034864;28;20136;-76
2021/03/26 21:49:29;;;;;;;36.90;21.90;;;6.80;84.40;;;;;;5034682;28;20021;-76
2021/03/26 21:52:10;;;;;;;35.15;21.73;;;6.70;83.80;;;;;;5034519;28;20135;-76
2021/03/26 21:54:38;;;;;;;;;;;6.80;84.00;;;;;;5035066;28;20033;-76
2021/03/26 21:57:20;;;;;;;38.13;21.58;;;6.80;84.00;;;;;;5034424;28;19905;-76
2021/03/26 22:00:01;;;;;;;36.85;22.50;;;6.90;83.60;;;;;;5035706;28;20025;-76
2021/03/26 22:02:26;;;;;;;38.58;22.77;;;6.90;83.40;;;;;;5034505;28;20080;-76
2021/03/26 22:05:05;;;;;;;40.13;23.42;;;6.90;83.20;;;;;;5034067;28;20049;-76
2021/03/26 22:07:53;;;;;;;39.58;23.35;;;7.00;83.10;;;;;;5051059;28;20022;-76
2021/03/26 22:10:32;;;;;;;35.25;20.63;;;7.00;82.90;;;;;;5034784;28;20029;-76
2021/03/26 22:13:20;;;;;;;30.58;19.05;;;7.00;83.10;;;;;;5034275;28;20024;-76
2021/03/26 22:15:50;;;;;;;32.83;20.70;;;7.00;83.00;;;;;;5034276;28;20033;-76
2021/03/26 22:18:37;;;;;;;36.97;23.15;;;7.10;82.70;;;;;;5033748;28;20037;-76
2021/03/26 22:21:23;;;;;;;33.58;21.65;;;7.10;82.20;;;;;;5033239;28;20431;-76
2021/03/26 22:23:55;;;;;;;39.72;24.27;;;7.10;82.40;;;;;;5035223;28;20033;-76
2021/03/26 22:26:32;;;;;;;33.28;20.27;;;7.10;82.10;;;;;;5033383;28;20108;-76
2021/03/26 22:29:25;;;;;;;36.67;21.10;;;7.00;82.50;;;;;;5033542;28;20032;-76
2021/03/26 22:32:15;;;;;;;35.13;21.20;;;7.00;82.50;;;;;;5034763;28;20028;-76
2021/03/26 22:35:26;;;;;;;32.33;19.63;;;7.10;82.40;;;;;;5034595;28;20053;-76
2021/03/26 22:38:16;;;;;;;37.15;22.58;;;7.10;82.30;;;;;;5033149;28;20447;-76
2021/03/26 22:41:03;;;;;;;35.63;21.45;;;7.00;82.80;;;;;;5034303;28;20162;-76
2021/03/26 22:43:30;;;;;;;32.08;19.85;;;7.10;82.90;;;;;;5033245;28;20029;-76
2021/03/26 22:46:02;;;;;;;35.03;21.27;;;7.00;82.90;;;;;;5033253;28;20033;-76
2021/03/26 22:48:48;;;;;;;35.58;22.13;;;7.10;82.90;;;;;;5033091;28;20374;-76
2021/03/26 22:51:32;;;;;;;41.25;25.48;;;7.10;82.90;;;;;;5032968;28;20033;-76
2021/03/26 22:54:28;;;;;;;41.53;24.58;;;7.00;83.80;;;;;;5032865;28;20030;-76
2021/03/26 22:57:42;;;;;;;45.03;25.75;;;7.10;84.50;;;;;;5033391;28;20026;-76
2021/03/26 23:00:32;;;;;;;37.67;21.65;;;7.10;85.40;;;;;;5031753;28;20478;-76
2021/03/26 23:03:10;;;;;;;36.67;21.00;;;7.10;84.50;;;;;;5032907;28;20036;-76
2021/03/26 23:05:39;;;;;;;34.42;20.38;;;7.20;85.00;;;;;;5032382;28;20050;-76
2021/03/26 23:08:11;;;;;;;35.58;22.23;;;7.20;84.30;;;;;;5032690;28;20040;-76
2021/03/26 23:10:46;;;;;;;36.72;22.83;;;7.20;84.20;;;;;;5034123;28;20021;-76
2021/03/26 23:13:35;;;;;;;35.70;20.17;;;7.20;84.10;;;;;;5032664;28;20080;-76
2021/03/26 23:16:11;;;;;;;33.55;20.30;;;7.20;84.10;;;;;;5033336;28;20029;-76
2021/03/26 23:18:59;;;;;;;38.83;22.88;;;7.20;84.20;;;;;;5033027;28;20430;-76
2021/03/26 23:21:26;;;;;;;41.35;24.48;;;7.20;84.30;;;;;;5032774;28;20034;-76
2021/03/26 23:23:57;;;;;;;43.10;25.50;;;7.10;84.70;;;;;;5033464;28;20535;-76
2021/03/26 23:26:39;;;;;;;39.03;22.50;;;7.10;85.10;;;;;;5034016;28;20060;-75
2021/03/26 23:29:14;;;;;;;46.30;25.92;;;7.10;84.80;;;;;;5034045;28;20056;-75
2021/03/26 23:31:58;;;;;;;40.75;23.08;;;7.20;84.80;;;;;;5013076;28;20037;-75
2021/03/26 23:34:24;;;;;;;35.30;21.60;;;7.10;84.70;;;;;;5013069;28;20109;-74
2021/03/26 23:36:55;;;;;;;35.30;21.50;;;7.20;84.80;;;;;;5012934;28;20125;-75
2021/03/26 23:39:29;;;;;;;39.45;23.88;;;7.20;84.70;;;;;;5012972;28;20030;-75
2021/03/26 23:42:28;;;;;;;42.58;23.05;;;7.20;84.80;;;;;;5030885;28;20030;-76
2021/03/26 23:45:06;;;;;;;41.85;24.40;;;7.20;84.80;;;;;;5032543;28;20026;-76
2021/03/26 23:47:38;;;;;;;42.55;24.67;;;7.10;85.40;;;;;;5032562;28;20075;-76
2021/03/26 23:50:14;;;;;;;37.55;23.70;;;7.10;85.40;;;;;;5032469;28;20483;-76
2021/03/26 23:53:10;;;;;;;40.38;24.80;;;7.10;85.30;;;;;;5032503;28;20467;-76
2021/03/26 23:56:00;;;;;;;44.17;23.67;;;7.10;85.30;;;;;;5033753;28;20032;-76
2021/03/26 23:58:49;;;;;;;43.40;24.93;;;7.10;85.90;;;;;;5032792;28;20030;-76
